sensor_id;sensor_type;location;lat;lon;timestamp;P1;durP1;ratioP1;P2;durP2;ratioP2
19854;SDS011;10088;47.946;2.532;2023-06-22T00:00:45;28.40;;;9.17;;
19854;SDS011;10088;47.946;2.532;2023-06-22T00:03:11;22.27;;;8.67;;
19854;SDS011;10088;47.946;2.532;2023-06-22T00:05:36;23.10;;;8.17;;
19854;SDS011;10088;47.946;2.532;2023-06-22T00:08:02;15.80;;;8.43;;
19854;SDS011;10088;47.946;2.532;2023-06-22T00:10:28;25.20;;;9.00;;
19854;SDS011;10088;47.946;2.532;2023-06-22T00:12:54;31.87;;;9.20;;
19854;SDS011;10088;47.946;2.532;2023-06-22T00:15:19;25.90;;;9.20;;
19854;SDS011;10088;47.946;2.532;2023-06-22T00:17:45;20.47;;;8.50;;
19854;SDS011;10088;47.946;2.532;2023-06-22T00:20:10;24.27;;;9.10;;
19854;SDS011;10088;47.946;2.532;2023-06-22T00:22:36;25.73;;;8.50;;
19854;SDS011;10088;47.946;2.532;2023-06-22T00:25:04;14.33;;;7.50;;
19854;SDS011;10088;47.946;2.532;2023-06-22T00:27:29;17.03;;;8.20;;
19854;SDS011;10088;47.946;2.532;2023-06-22T00:29:54;26.93;;;9.13;;
19854;SDS011;10088;47.946;2.532;2023-06-22T00:32:20;37.17;;;9.97;;
19854;SDS011;10088;47.946;2.532;2023-06-22T00:34:45;25.30;;;9.20;;
19854;SDS011;10088;47.946;2.532;2023-06-22T00:37:10;29.40;;;8.43;;
19854;SDS011;10088;47.946;2.532;2023-06-22T00:39:36;35.30;;;9.80;;
19854;SDS011;10088;47.946;2.532;2023-06-22T00:42:01;31.60;;;9.10;;
19854;SDS011;10088;47.946;2.532;2023-06-22T00:44:26;30.73;;;9.20;;
19854;SDS011;10088;47.946;2.532;2023-06-22T00:46:52;31.90;;;9.30;;
19854;SDS011;10088;47.946;2.532;2023-06-22T00:49:17;30.50;;;9.20;;
19854;SDS011;10088;47.946;2.532;2023-06-22T00:51:43;36.87;;;9.97;;
19854;SDS011;10088;47.946;2.532;2023-06-22T00:54:11;35.70;;;9.60;;
19854;SDS011;10088;47.946;2.532;2023-06-22T00:56:39;41.43;;;9.10;;
19854;SDS011;10088;47.946;2.532;2023-06-22T00:59:04;30.07;;;9.93;;
19854;SDS011;10088;47.946;2.532;2023-06-22T01:01:30;27.17;;;9.50;;
19854;SDS011;10088;47.946;2.532;2023-06-22T01:03:55;27.07;;;8.90;;
19854;SDS011;10088;47.946;2.532;2023-06-22T01:06:25;24.00;;;8.80;;
19854;SDS011;10088;47.946;2.532;2023-06-22T01:08:54;40.60;;;10.20;;
19854;SDS011;10088;47.946;2.532;2023-06-22T01:11:31;20.73;;;9.90;;
19854;SDS011;10088;47.946;2.532;2023-06-22T01:16:24;19.30;;;9.47;;
19854;SDS011;10088;47.946;2.532;2023-06-22T01:18:52;23.70;;;9.20;;
19854;SDS011;10088;47.946;2.532;2023-06-22T01:21:18;21.87;;;9.60;;
19854;SDS011;10088;47.946;2.532;2023-06-22T01:35:03;23.90;;;8.70;;
19854;SDS011;10088;47.946;2.532;2023-06-22T01:37:29;24.10;;;9.80;;
19854;SDS011;10088;47.946;2.532;2023-06-22T01:39:57;20.07;;;8.73;;
19854;SDS011;10088;47.946;2.532;2023-06-22T01:42:23;28.60;;;8.83;;
19854;SDS011;10088;47.946;2.532;2023-06-22T01:44:49;31.47;;;9.50;;
19854;SDS011;10088;47.946;2.532;2023-06-22T01:47:15;23.70;;;8.70;;
19854;SDS011;10088;47.946;2.532;2023-06-22T01:49:41;19.83;;;8.60;;
19854;SDS011;10088;47.946;2.532;2023-06-22T01:52:06;27.10;;;9.13;;
19854;SDS011;10088;47.946;2.532;2023-06-22T01:54:32;30.27;;;9.43;;
19854;SDS011;10088;47.946;2.532;2023-06-22T01:56:57;25.73;;;8.77;;
19854;SDS011;10088;47.946;2.532;2023-06-22T01:59:28;25.90;;;9.27;;
19854;SDS011;10088;47.946;2.532;2023-06-22T02:02:01;24.27;;;9.03;;
19854;SDS011;10088;47.946;2.532;2023-06-22T02:04:29;25.17;;;8.73;;
19854;SDS011;10088;47.946;2.532;2023-06-22T02:06:58;28.50;;;8.60;;
19854;SDS011;10088;47.946;2.532;2023-06-22T02:09:24;36.30;;;9.13;;
19854;SDS011;10088;47.946;2.532;2023-06-22T02:11:51;21.87;;;8.73;;
19854;SDS011;10088;47.946;2.532;2023-06-22T02:14:19;31.47;;;8.67;;
19854;SDS011;10088;47.946;2.532;2023-06-22T02:16:45;27.03;;;8.57;;
19854;SDS011;10088;47.946;2.532;2023-06-22T02:19:11;29.63;;;8.93;;
19854;SDS011;10088;47.946;2.532;2023-06-22T02:21:36;24.27;;;8.23;;
19854;SDS011;10088;47.946;2.532;2023-06-22T02:24:01;26.23;;;8.27;;
19854;SDS011;10088;47.946;2.532;2023-06-22T02:26:27;24.77;;;9.10;;
19854;SDS011;10088;47.946;2.532;2023-06-22T02:28:52;22.77;;;8.50;;
19854;SDS011;10088;47.946;2.532;2023-06-22T02:31:18;36.87;;;8.77;;
19854;SDS011;10088;47.946;2.532;2023-06-22T02:33:43;39.63;;;8.37;;
19854;SDS011;10088;47.946;2.532;2023-06-22T02:36:09;28.27;;;8.10;;
19854;SDS011;10088;47.946;2.532;2023-06-22T02:38:38;33.17;;;8.50;;
19854;SDS011;10088;47.946;2.532;2023-06-22T02:41:04;30.47;;;8.57;;
19854;SDS011;10088;47.946;2.532;2023-06-22T02:43:29;29.13;;;8.67;;
19854;SDS011;10088;47.946;2.532;2023-06-22T02:45:55;20.97;;;8.43;;
19854;SDS011;10088;47.946;2.532;2023-06-22T02:48:20;23.13;;;8.10;;
19854;SDS011;10088;47.946;2.532;2023-06-22T02:50:45;24.57;;;8.30;;
19854;SDS011;10088;47.946;2.532;2023-06-22T02:53:10;24.80;;;8.40;;
19854;SDS011;10088;47.946;2.532;2023-06-22T02:55:36;21.37;;;8.30;;
19854;SDS011;10088;47.946;2.532;2023-06-22T02:58:01;25.10;;;8.20;;
19854;SDS011;10088;47.946;2.532;2023-06-22T03:00:30;18.07;;;7.20;;
19854;SDS011;10088;47.946;2.532;2023-06-22T03:02:56;26.03;;;8.33;;
19854;SDS011;10088;47.946;2.532;2023-06-22T03:05:21;25.13;;;8.03;;
19854;SDS011;10088;47.946;2.532;2023-06-22T03:07:46;25.33;;;8.90;;
19854;SDS011;10088;47.946;2.532;2023-06-22T03:10:12;23.00;;;8.67;;
19854;SDS011;10088;47.946;2.532;2023-06-22T03:12:38;22.70;;;8.10;;
19854;SDS011;10088;47.946;2.532;2023-06-22T03:15:10;18.60;;;8.40;;
19854;SDS011;10088;47.946;2.532;2023-06-22T03:17:36;19.93;;;8.10;;
19854;SDS011;10088;47.946;2.532;2023-06-22T03:20:04;30.43;;;8.63;;
19854;SDS011;10088;47.946;2.532;2023-06-22T03:22:34;28.40;;;8.80;;
19854;SDS011;10088;47.946;2.532;2023-06-22T03:25:00;33.67;;;8.57;;
19854;SDS011;10088;47.946;2.532;2023-06-22T03:27:25;34.53;;;8.93;;
19854;SDS011;10088;47.946;2.532;2023-06-22T03:29:51;23.73;;;8.23;;
19854;SDS011;10088;47.946;2.532;2023-06-22T03:32:16;22.07;;;7.63;;
19854;SDS011;10088;47.946;2.532;2023-06-22T03:34:41;16.10;;;8.23;;
19854;SDS011;10088;47.946;2.532;2023-06-22T03:37:12;18.37;;;7.70;;
19854;SDS011;10088;47.946;2.532;2023-06-22T03:39:38;18.43;;;7.93;;
19854;SDS011;10088;47.946;2.532;2023-06-22T03:42:03;23.50;;;8.20;;
19854;SDS011;10088;47.946;2.532;2023-06-22T03:44:28;20.93;;;8.43;;
19854;SDS011;10088;47.946;2.532;2023-06-22T03:46:54;24.77;;;8.27;;
19854;SDS011;10088;47.946;2.532;2023-06-22T03:49:19;31.17;;;9.53;;
19854;SDS011;10088;47.946;2.532;2023-06-22T03:51:44;30.00;;;8.90;;
19854;SDS011;10088;47.946;2.532;2023-06-22T03:54:10;35.33;;;9.10;;
19854;SDS011;10088;47.946;2.532;2023-06-22T03:56:35;34.17;;;8.57;;
19854;SDS011;10088;47.946;2.532;2023-06-22T03:59:00;31.43;;;9.50;;
19854;SDS011;10088;47.946;2.532;2023-06-22T04:01:25;33.83;;;9.57;;
19854;SDS011;10088;47.946;2.532;2023-06-22T04:03:51;24.60;;;9.17;;
19854;SDS011;10088;47.946;2.532;2023-06-22T04:06:16;27.73;;;8.80;;
19854;SDS011;10088;47.946;2.532;2023-06-22T04:08:41;23.20;;;8.43;;
19854;SDS011;10088;47.946;2.532;2023-06-22T04:11:07;41.57;;;9.23;;
19854;SDS011;10088;47.946;2.532;2023-06-22T04:13:32;42.33;;;11.17;;
19854;SDS011;10088;47.946;2.532;2023-06-22T04:15:57;24.33;;;9.03;;
19854;SDS011;10088;47.946;2.532;2023-06-22T04:18:23;33.87;;;9.03;;
19854;SDS011;10088;47.946;2.532;2023-06-22T04:20:48;21.30;;;8.67;;
19854;SDS011;10088;47.946;2.532;2023-06-22T04:23:13;21.27;;;8.17;;
19854;SDS011;10088;47.946;2.532;2023-06-22T04:25:39;22.77;;;8.23;;
19854;SDS011;10088;47.946;2.532;2023-06-22T04:28:04;22.57;;;8.60;;
19854;SDS011;10088;47.946;2.532;2023-06-22T04:30:29;26.93;;;8.63;;
19854;SDS011;10088;47.946;2.532;2023-06-22T04:32:56;23.27;;;8.43;;
19854;SDS011;10088;47.946;2.532;2023-06-22T04:35:23;30.53;;;8.30;;
19854;SDS011;10088;47.946;2.532;2023-06-22T04:37:48;20.80;;;8.27;;
19854;SDS011;10088;47.946;2.532;2023-06-22T04:40:15;20.23;;;7.60;;
19854;SDS011;10088;47.946;2.532;2023-06-22T04:42:40;21.67;;;8.20;;
19854;SDS011;10088;47.946;2.532;2023-06-22T04:45:05;28.23;;;8.07;;
19854;SDS011;10088;47.946;2.532;2023-06-22T04:47:31;16.87;;;7.60;;
19854;SDS011;10088;47.946;2.532;2023-06-22T04:49:56;21.27;;;8.23;;
19854;SDS011;10088;47.946;2.532;2023-06-22T04:52:21;12.40;;;7.33;;
19854;SDS011;10088;47.946;2.532;2023-06-22T04:54:47;18.80;;;8.00;;
19854;SDS011;10088;47.946;2.532;2023-06-22T04:57:20;20.27;;;8.40;;
19854;SDS011;10088;47.946;2.532;2023-06-22T04:59:45;14.47;;;7.53;;
19854;SDS011;10088;47.946;2.532;2023-06-22T05:02:11;16.13;;;7.57;;
19854;SDS011;10088;47.946;2.532;2023-06-22T05:04:36;12.40;;;7.03;;
19854;SDS011;10088;47.946;2.532;2023-06-22T05:07:03;22.70;;;8.03;;
19854;SDS011;10088;47.946;2.532;2023-06-22T05:09:29;19.57;;;7.60;;
19854;SDS011;10088;47.946;2.532;2023-06-22T05:11:55;18.30;;;7.30;;
19854;SDS011;10088;47.946;2.532;2023-06-22T05:14:22;21.33;;;7.80;;
19854;SDS011;10088;47.946;2.532;2023-06-22T05:16:48;17.30;;;7.27;;
19854;SDS011;10088;47.946;2.532;2023-06-22T05:19:13;12.20;;;6.67;;
19854;SDS011;10088;47.946;2.532;2023-06-22T05:21:38;23.20;;;7.67;;
19854;SDS011;10088;47.946;2.532;2023-06-22T05:24:04;15.00;;;7.27;;
19854;SDS011;10088;47.946;2.532;2023-06-22T05:26:30;13.30;;;7.40;;
19854;SDS011;10088;47.946;2.532;2023-06-22T05:28:55;14.87;;;6.53;;
19854;SDS011;10088;47.946;2.532;2023-06-22T05:31:21;12.70;;;6.87;;
19854;SDS011;10088;47.946;2.532;2023-06-22T05:33:46;22.40;;;7.83;;
19854;SDS011;10088;47.946;2.532;2023-06-22T05:36:12;13.50;;;6.77;;
19854;SDS011;10088;47.946;2.532;2023-06-22T05:38:39;14.20;;;7.03;;
19854;SDS011;10088;47.946;2.532;2023-06-22T05:41:04;14.30;;;6.67;;
19854;SDS011;10088;47.946;2.532;2023-06-22T05:43:30;16.93;;;6.90;;
19854;SDS011;10088;47.946;2.532;2023-06-22T05:45:55;17.27;;;7.27;;
19854;SDS011;10088;47.946;2.532;2023-06-22T05:48:21;13.33;;;6.97;;
19854;SDS011;10088;47.946;2.532;2023-06-22T05:50:46;19.47;;;8.20;;
19854;SDS011;10088;47.946;2.532;2023-06-22T05:53:11;10.17;;;7.50;;
19854;SDS011;10088;47.946;2.532;2023-06-22T05:55:37;11.97;;;6.83;;
19854;SDS011;10088;47.946;2.532;2023-06-22T05:58:03;16.40;;;6.70;;
19854;SDS011;10088;47.946;2.532;2023-06-22T06:00:28;19.60;;;7.60;;
19854;SDS011;10088;47.946;2.532;2023-06-22T06:02:54;13.80;;;6.67;;
19854;SDS011;10088;47.946;2.532;2023-06-22T06:05:19;15.27;;;6.60;;
19854;SDS011;10088;47.946;2.532;2023-06-22T06:07:45;11.10;;;6.30;;
19854;SDS011;10088;47.946;2.532;2023-06-22T06:10:10;12.60;;;7.03;;
19854;SDS011;10088;47.946;2.532;2023-06-22T06:12:36;9.87;;;7.00;;
19854;SDS011;10088;47.946;2.532;2023-06-22T06:15:01;16.30;;;7.33;;
19854;SDS011;10088;47.946;2.532;2023-06-22T06:17:26;12.93;;;6.43;;
19854;SDS011;10088;47.946;2.532;2023-06-22T06:19:52;13.93;;;6.90;;
19854;SDS011;10088;47.946;2.532;2023-06-22T06:22:17;12.73;;;6.87;;
19854;SDS011;10088;47.946;2.532;2023-06-22T06:24:44;14.07;;;6.37;;
19854;SDS011;10088;47.946;2.532;2023-06-22T06:27:09;18.00;;;7.07;;
19854;SDS011;10088;47.946;2.532;2023-06-22T06:29:34;11.30;;;7.20;;
19854;SDS011;10088;47.946;2.532;2023-06-22T06:32:00;14.03;;;6.63;;
19854;SDS011;10088;47.946;2.532;2023-06-22T06:34:25;10.80;;;6.30;;
19854;SDS011;10088;47.946;2.532;2023-06-22T06:36:50;17.70;;;7.00;;
19854;SDS011;10088;47.946;2.532;2023-06-22T06:39:15;23.60;;;7.37;;
19854;SDS011;10088;47.946;2.532;2023-06-22T06:41:41;11.90;;;6.50;;
19854;SDS011;10088;47.946;2.532;2023-06-22T06:44:06;14.67;;;7.30;;
19854;SDS011;10088;47.946;2.532;2023-06-22T06:46:32;11.27;;;6.90;;
19854;SDS011;10088;47.946;2.532;2023-06-22T06:48:57;11.13;;;6.53;;
19854;SDS011;10088;47.946;2.532;2023-06-22T06:51:22;13.73;;;7.10;;
19854;SDS011;10088;47.946;2.532;2023-06-22T06:53:48;17.53;;;7.30;;
19854;SDS011;10088;47.946;2.532;2023-06-22T06:56:13;14.17;;;7.70;;
19854;SDS011;10088;47.946;2.532;2023-06-22T06:58:40;8.53;;;6.30;;
19854;SDS011;10088;47.946;2.532;2023-06-22T07:01:07;14.97;;;7.13;;
19854;SDS011;10088;47.946;2.532;2023-06-22T07:03:32;10.60;;;6.33;;
19854;SDS011;10088;47.946;2.532;2023-06-22T07:05:58;11.53;;;6.73;;
19854;SDS011;10088;47.946;2.532;2023-06-22T07:08:23;10.23;;;6.33;;
19854;SDS011;10088;47.946;2.532;2023-06-22T07:10:49;10.70;;;6.37;;
19854;SDS011;10088;47.946;2.532;2023-06-22T07:13:14;9.57;;;6.83;;
19854;SDS011;10088;47.946;2.532;2023-06-22T07:15:39;10.67;;;6.87;;
19854;SDS011;10088;47.946;2.532;2023-06-22T07:18:05;10.20;;;6.17;;
19854;SDS011;10088;47.946;2.532;2023-06-22T07:20:30;8.57;;;6.20;;
19854;SDS011;10088;47.946;2.532;2023-06-22T07:22:56;11.97;;;7.20;;
19854;SDS011;10088;47.946;2.532;2023-06-22T07:25:21;7.40;;;6.07;;
19854;SDS011;10088;47.946;2.532;2023-06-22T07:30:24;9.33;;;6.23;;
19854;SDS011;10088;47.946;2.532;2023-06-22T07:32:49;9.73;;;6.67;;
19854;SDS011;10088;47.946;2.532;2023-06-22T07:35:14;10.27;;;6.30;;
19854;SDS011;10088;47.946;2.532;2023-06-22T07:37:41;10.93;;;7.47;;
19854;SDS011;10088;47.946;2.532;2023-06-22T07:40:07;11.07;;;7.40;;
19854;SDS011;10088;47.946;2.532;2023-06-22T07:42:33;10.00;;;7.00;;
19854;SDS011;10088;47.946;2.532;2023-06-22T07:44:58;9.47;;;6.30;;
19854;SDS011;10088;47.946;2.532;2023-06-22T07:47:23;11.37;;;6.57;;
19854;SDS011;10088;47.946;2.532;2023-06-22T07:49:51;12.10;;;7.40;;
19854;SDS011;10088;47.946;2.532;2023-06-22T07:52:17;10.70;;;7.33;;
19854;SDS011;10088;47.946;2.532;2023-06-22T07:54:42;12.20;;;6.60;;
19854;SDS011;10088;47.946;2.532;2023-06-22T07:57:07;9.67;;;7.30;;
19854;SDS011;10088;47.946;2.532;2023-06-22T07:59:33;13.27;;;7.03;;
19854;SDS011;10088;47.946;2.532;2023-06-22T08:01:58;9.90;;;7.33;;
19854;SDS011;10088;47.946;2.532;2023-06-22T08:04:23;8.63;;;6.73;;
19854;SDS011;10088;47.946;2.532;2023-06-22T08:06:49;9.93;;;6.77;;
19854;SDS011;10088;47.946;2.532;2023-06-22T08:09:14;12.73;;;7.73;;
19854;SDS011;10088;47.946;2.532;2023-06-22T08:11:39;8.50;;;6.87;;
19854;SDS011;10088;47.946;2.532;2023-06-22T08:14:04;8.60;;;6.53;;
19854;SDS011;10088;47.946;2.532;2023-06-22T08:16:30;8.53;;;7.07;;
19854;SDS011;10088;47.946;2.532;2023-06-22T08:18:55;8.57;;;6.97;;
19854;SDS011;10088;47.946;2.532;2023-06-22T08:21:21;9.17;;;7.80;;
19854;SDS011;10088;47.946;2.532;2023-06-22T08:23:47;8.03;;;6.90;;
19854;SDS011;10088;47.946;2.532;2023-06-22T08:26:13;8.50;;;7.53;;
19854;SDS011;10088;47.946;2.532;2023-06-22T08:28:39;8.43;;;7.53;;
19854;SDS011;10088;47.946;2.532;2023-06-22T08:31:04;11.17;;;7.07;;
19854;SDS011;10088;47.946;2.532;2023-06-22T08:33:29;8.20;;;6.50;;
19854;SDS011;10088;47.946;2.532;2023-06-22T08:35:55;8.60;;;7.20;;
19854;SDS011;10088;47.946;2.532;2023-06-22T08:38:21;8.77;;;6.53;;
19854;SDS011;10088;47.946;2.532;2023-06-22T08:40:46;7.73;;;6.93;;
19854;SDS011;10088;47.946;2.532;2023-06-22T08:43:12;6.83;;;6.13;;
19854;SDS011;10088;47.946;2.532;2023-06-22T08:45:37;6.70;;;6.00;;
19854;SDS011;10088;47.946;2.532;2023-06-22T08:48:02;6.10;;;5.50;;
19854;SDS011;10088;47.946;2.532;2023-06-22T08:50:27;6.67;;;5.83;;
19854;SDS011;10088;47.946;2.532;2023-06-22T08:52:53;7.47;;;6.17;;
19854;SDS011;10088;47.946;2.532;2023-06-22T08:55:18;8.73;;;5.73;;
19854;SDS011;10088;47.946;2.532;2023-06-22T08:57:43;7.67;;;5.90;;
19854;SDS011;10088;47.946;2.532;2023-06-22T09:00:09;6.30;;;5.70;;
19854;SDS011;10088;47.946;2.532;2023-06-22T09:02:41;6.13;;;5.50;;
19854;SDS011;10088;47.946;2.532;2023-06-22T09:05:06;7.03;;;5.27;;
19854;SDS011;10088;47.946;2.532;2023-06-22T09:07:32;9.17;;;5.40;;
19854;SDS011;10088;47.946;2.532;2023-06-22T09:09:57;7.50;;;5.67;;
19854;SDS011;10088;47.946;2.532;2023-06-22T09:12:22;6.33;;;5.73;;
19854;SDS011;10088;47.946;2.532;2023-06-22T09:14:51;7.37;;;5.70;;
19854;SDS011;10088;47.946;2.532;2023-06-22T09:17:16;6.80;;;6.17;;
19854;SDS011;10088;47.946;2.532;2023-06-22T09:19:41;7.90;;;6.47;;
19854;SDS011;10088;47.946;2.532;2023-06-22T09:22:07;8.00;;;6.30;;
19854;SDS011;10088;47.946;2.532;2023-06-22T09:24:32;6.83;;;6.23;;
19854;SDS011;10088;47.946;2.532;2023-06-22T09:26:58;7.57;;;6.37;;
19854;SDS011;10088;47.946;2.532;2023-06-22T09:29:23;8.20;;;6.13;;
19854;SDS011;10088;47.946;2.532;2023-06-22T09:31:48;9.07;;;6.43;;
19854;SDS011;10088;47.946;2.532;2023-06-22T09:34:14;7.03;;;6.43;;
19854;SDS011;10088;47.946;2.532;2023-06-22T09:36:40;10.23;;;7.10;;
19854;SDS011;10088;47.946;2.532;2023-06-22T09:39:06;8.83;;;6.90;;
19854;SDS011;10088;47.946;2.532;2023-06-22T09:41:31;10.30;;;7.10;;
19854;SDS011;10088;47.946;2.532;2023-06-22T09:43:57;7.93;;;7.23;;
19854;SDS011;10088;47.946;2.532;2023-06-22T09:46:22;12.03;;;7.60;;
19854;SDS011;10088;47.946;2.532;2023-06-22T09:48:50;11.73;;;8.10;;
19854;SDS011;10088;47.946;2.532;2023-06-22T09:51:15;11.17;;;8.93;;
19854;SDS011;10088;47.946;2.532;2023-06-22T09:53:40;11.20;;;8.77;;
19854;SDS011;10088;47.946;2.532;2023-06-22T09:56:06;10.27;;;8.90;;
19854;SDS011;10088;47.946;2.532;2023-06-22T09:58:31;11.50;;;8.90;;
19854;SDS011;10088;47.946;2.532;2023-06-22T10:00:56;13.03;;;9.23;;
19854;SDS011;10088;47.946;2.532;2023-06-22T10:03:24;11.07;;;9.97;;
19854;SDS011;10088;47.946;2.532;2023-06-22T10:09:02;14.77;;;11.50;;
19854;SDS011;10088;47.946;2.532;2023-06-22T10:17:52;13.57;;;12.17;;
19854;SDS011;10088;47.946;2.532;2023-06-22T10:20:21;12.97;;;11.67;;
19854;SDS011;10088;47.946;2.532;2023-06-22T10:22:49;12.57;;;11.37;;
19854;SDS011;10088;47.946;2.532;2023-06-22T10:25:28;11.90;;;10.60;;
19854;SDS011;10088;47.946;2.532;2023-06-22T10:28:01;11.63;;;10.47;;
19854;SDS011;10088;47.946;2.532;2023-06-22T10:36:59;10.63;;;9.53;;
19854;SDS011;10088;47.946;2.532;2023-06-22T10:39:40;11.13;;;9.30;;
19854;SDS011;10088;47.946;2.532;2023-06-22T10:42:27;10.30;;;8.70;;
19854;SDS011;10088;47.946;2.532;2023-06-22T10:45:21;9.23;;;8.27;;
19854;SDS011;10088;47.946;2.532;2023-06-22T10:48:08;11.60;;;9.03;;
19854;SDS011;10088;47.946;2.532;2023-06-22T10:50:58;13.13;;;9.37;;
19854;SDS011;10088;47.946;2.532;2023-06-22T10:53:28;13.03;;;9.73;;
19854;SDS011;10088;47.946;2.532;2023-06-22T10:56:14;14.97;;;10.20;;
19854;SDS011;10088;47.946;2.532;2023-06-22T10:58:48;11.67;;;9.80;;
19854;SDS011;10088;47.946;2.532;2023-06-22T11:01:28;12.90;;;9.73;;
19854;SDS011;10088;47.946;2.532;2023-06-22T11:04:18;11.07;;;9.87;;
19854;SDS011;10088;47.946;2.532;2023-06-22T11:06:54;16.97;;;11.30;;
19854;SDS011;10088;47.946;2.532;2023-06-22T11:09:52;15.37;;;11.87;;
19854;SDS011;10088;47.946;2.532;2023-06-22T11:12:19;13.30;;;11.83;;
19854;SDS011;10088;47.946;2.532;2023-06-22T11:15:12;14.13;;;12.73;;
19854;SDS011;10088;47.946;2.532;2023-06-22T11:17:43;15.37;;;13.43;;
19854;SDS011;10088;47.946;2.532;2023-06-22T11:23:18;15.10;;;13.60;;
19854;SDS011;10088;47.946;2.532;2023-06-22T11:25:44;16.07;;;13.00;;
19854;SDS011;10088;47.946;2.532;2023-06-22T11:28:09;14.40;;;12.80;;
19854;SDS011;10088;47.946;2.532;2023-06-22T11:30:34;17.50;;;12.00;;
19854;SDS011;10088;47.946;2.532;2023-06-22T11:33:00;15.83;;;12.53;;
19854;SDS011;10088;47.946;2.532;2023-06-22T11:35:25;15.30;;;13.10;;
19854;SDS011;10088;47.946;2.532;2023-06-22T11:37:51;16.07;;;12.40;;
19854;SDS011;10088;47.946;2.532;2023-06-22T11:40:16;15.30;;;11.97;;
19854;SDS011;10088;47.946;2.532;2023-06-22T11:42:42;17.13;;;12.93;;
19854;SDS011;10088;47.946;2.532;2023-06-22T11:45:08;17.47;;;13.90;;
19854;SDS011;10088;47.946;2.532;2023-06-22T11:47:33;16.90;;;13.10;;
19854;SDS011;10088;47.946;2.532;2023-06-22T11:49:58;14.90;;;13.33;;
19854;SDS011;10088;47.946;2.532;2023-06-22T11:52:24;15.67;;;13.93;;
19854;SDS011;10088;47.946;2.532;2023-06-22T11:54:49;16.33;;;13.67;;
19854;SDS011;10088;47.946;2.532;2023-06-22T11:57:14;17.20;;;14.50;;
19854;SDS011;10088;47.946;2.532;2023-06-22T11:59:39;16.27;;;14.60;;
19854;SDS011;10088;47.946;2.532;2023-06-22T12:02:05;16.80;;;14.30;;
19854;SDS011;10088;47.946;2.532;2023-06-22T12:04:32;17.67;;;15.23;;
19854;SDS011;10088;47.946;2.532;2023-06-22T12:06:58;17.73;;;14.97;;
19854;SDS011;10088;47.946;2.532;2023-06-22T12:09:23;18.20;;;15.40;;
19854;SDS011;10088;47.946;2.532;2023-06-22T12:11:49;15.17;;;13.40;;
19854;SDS011;10088;47.946;2.532;2023-06-22T12:14:14;15.17;;;13.60;;
19854;SDS011;10088;47.946;2.532;2023-06-22T12:16:39;16.67;;;13.97;;
19854;SDS011;10088;47.946;2.532;2023-06-22T12:19:04;15.00;;;13.53;;
19854;SDS011;10088;47.946;2.532;2023-06-22T12:21:30;18.30;;;13.53;;
19854;SDS011;10088;47.946;2.532;2023-06-22T12:23:55;15.53;;;13.87;;
19854;SDS011;10088;47.946;2.532;2023-06-22T12:26:20;13.63;;;11.43;;
19854;SDS011;10088;47.946;2.532;2023-06-22T12:28:47;12.20;;;10.87;;
19854;SDS011;10088;47.946;2.532;2023-06-22T12:31:14;13.53;;;11.13;;
19854;SDS011;10088;47.946;2.532;2023-06-22T12:33:39;12.60;;;10.53;;
19854;SDS011;10088;47.946;2.532;2023-06-22T12:36:04;12.40;;;10.60;;
19854;SDS011;10088;47.946;2.532;2023-06-22T12:38:30;12.23;;;10.40;;
19854;SDS011;10088;47.946;2.532;2023-06-22T12:40:55;16.57;;;10.03;;
19854;SDS011;10088;47.946;2.532;2023-06-22T12:43:21;12.80;;;10.00;;
19854;SDS011;10088;47.946;2.532;2023-06-22T12:45:46;10.57;;;9.57;;
19854;SDS011;10088;47.946;2.532;2023-06-22T12:48:11;13.70;;;10.23;;
19854;SDS011;10088;47.946;2.532;2023-06-22T12:50:37;11.37;;;10.03;;
19854;SDS011;10088;47.946;2.532;2023-06-22T12:53:03;9.67;;;8.67;;
19854;SDS011;10088;47.946;2.532;2023-06-22T12:55:29;12.50;;;8.87;;
19854;SDS011;10088;47.946;2.532;2023-06-22T12:57:54;8.87;;;7.97;;
19854;SDS011;10088;47.946;2.532;2023-06-22T13:00:20;11.07;;;8.17;;
19854;SDS011;10088;47.946;2.532;2023-06-22T13:02:45;8.93;;;8.03;;
19854;SDS011;10088;47.946;2.532;2023-06-22T13:05:10;12.50;;;8.43;;
19854;SDS011;10088;47.946;2.532;2023-06-22T13:07:36;11.83;;;8.37;;
19854;SDS011;10088;47.946;2.532;2023-06-22T13:10:01;9.13;;;7.40;;
19854;SDS011;10088;47.946;2.532;2023-06-22T13:12:26;8.80;;;7.57;;
19854;SDS011;10088;47.946;2.532;2023-06-22T13:14:52;8.90;;;7.77;;
19854;SDS011;10088;47.946;2.532;2023-06-22T13:17:17;8.50;;;7.37;;
19854;SDS011;10088;47.946;2.532;2023-06-22T13:19:42;8.97;;;6.60;;
19854;SDS011;10088;47.946;2.532;2023-06-22T13:24:53;5.87;;;5.27;;
19854;SDS011;10088;47.946;2.532;2023-06-22T13:27:18;8.27;;;5.60;;
19854;SDS011;10088;47.946;2.532;2023-06-22T13:29:43;11.77;;;5.40;;
19854;SDS011;10088;47.946;2.532;2023-06-22T13:32:08;7.67;;;5.07;;
19854;SDS011;10088;47.946;2.532;2023-06-22T13:34:34;5.03;;;4.53;;
19854;SDS011;10088;47.946;2.532;2023-06-22T13:36:59;6.40;;;4.73;;
19854;SDS011;10088;47.946;2.532;2023-06-22T13:39:24;6.93;;;4.37;;
19854;SDS011;10088;47.946;2.532;2023-06-22T13:41:49;10.13;;;4.97;;
19854;SDS011;10088;47.946;2.532;2023-06-22T13:44:15;6.20;;;4.70;;
19854;SDS011;10088;47.946;2.532;2023-06-22T13:46:40;8.63;;;4.43;;
19854;SDS011;10088;47.946;2.532;2023-06-22T13:49:05;7.17;;;4.77;;
19854;SDS011;10088;47.946;2.532;2023-06-22T13:51:30;5.27;;;4.23;;
19854;SDS011;10088;47.946;2.532;2023-06-22T13:53:56;9.60;;;3.60;;
19854;SDS011;10088;47.946;2.532;2023-06-22T13:56:21;7.00;;;4.13;;
19854;SDS011;10088;47.946;2.532;2023-06-22T13:58:46;6.37;;;3.70;;
19854;SDS011;10088;47.946;2.532;2023-06-22T14:01:12;6.07;;;4.10;;
19854;SDS011;10088;47.946;2.532;2023-06-22T14:03:37;7.80;;;4.40;;
19854;SDS011;10088;47.946;2.532;2023-06-22T14:06:02;7.27;;;4.60;;
19854;SDS011;10088;47.946;2.532;2023-06-22T14:08:29;4.83;;;4.33;;
19854;SDS011;10088;47.946;2.532;2023-06-22T14:10:54;9.13;;;4.70;;
19854;SDS011;10088;47.946;2.532;2023-06-22T14:13:19;5.20;;;4.37;;
19854;SDS011;10088;47.946;2.532;2023-06-22T14:15:45;7.30;;;4.13;;
19854;SDS011;10088;47.946;2.532;2023-06-22T14:18:13;5.70;;;4.97;;
19854;SDS011;10088;47.946;2.532;2023-06-22T14:20:39;5.90;;;4.77;;
19854;SDS011;10088;47.946;2.532;2023-06-22T14:23:05;5.50;;;4.33;;
19854;SDS011;10088;47.946;2.532;2023-06-22T14:25:30;8.17;;;5.00;;
19854;SDS011;10088;47.946;2.532;2023-06-22T14:27:55;7.80;;;5.03;;
19854;SDS011;10088;47.946;2.532;2023-06-22T14:30:21;6.80;;;4.47;;
19854;SDS011;10088;47.946;2.532;2023-06-22T14:32:46;7.70;;;4.57;;
19854;SDS011;10088;47.946;2.532;2023-06-22T14:35:11;6.30;;;4.63;;
19854;SDS011;10088;47.946;2.532;2023-06-22T14:37:37;5.00;;;4.10;;
19854;SDS011;10088;47.946;2.532;2023-06-22T14:40:02;6.83;;;4.47;;
19854;SDS011;10088;47.946;2.532;2023-06-22T14:42:27;5.97;;;4.37;;
19854;SDS011;10088;47.946;2.532;2023-06-22T14:44:55;5.07;;;4.50;;
19854;SDS011;10088;47.946;2.532;2023-06-22T14:47:20;8.17;;;4.40;;
19854;SDS011;10088;47.946;2.532;2023-06-22T14:49:46;9.70;;;4.97;;
19854;SDS011;10088;47.946;2.532;2023-06-22T14:52:11;7.80;;;4.20;;
19854;SDS011;10088;47.946;2.532;2023-06-22T14:54:36;7.87;;;4.40;;
19854;SDS011;10088;47.946;2.532;2023-06-22T14:57:02;7.63;;;4.87;;
19854;SDS011;10088;47.946;2.532;2023-06-22T14:59:27;6.40;;;4.67;;
19854;SDS011;10088;47.946;2.532;2023-06-22T15:01:52;10.97;;;4.87;;
19854;SDS011;10088;47.946;2.532;2023-06-22T15:04:17;8.20;;;4.07;;
19854;SDS011;10088;47.946;2.532;2023-06-22T15:06:43;5.87;;;4.10;;
19854;SDS011;10088;47.946;2.532;2023-06-22T15:09:09;6.40;;;3.93;;